Terminal Aerodrome Forecast
Issued by NWS Binghamton, NY

Home | Current Version | Previous Version | Text Only | Print | Product List | Glossary On
Versions: 1 2 3 4 5 6 7 8 9 10 11 12 13 14 15 16 17 18
083
FTUS41 KBGM 251722
TAFBGM
TAF
KBGM 251722Z 2518/2618 35008KT P6SM SKC
     FM260200 06004KT P6SM SKC
     FM261300 15008KT P6SM SCT110
     FM261700 17012G21KT P6SM BKN070=

USA.gov is the U.S. government's official web portal to all federal, state and local government web resources and services.